createdAt,value
2023-02-27T00:00:15.193Z,-0.60
2023-02-27T00:03:05.838Z,-0.66
2023-02-27T00:05:57.975Z,-0.56
2023-02-27T00:08:47.759Z,-0.62
2023-02-27T00:11:39.240Z,-0.68
2023-02-27T00:14:30.386Z,-0.78
2023-02-27T00:17:20.170Z,-0.70
2023-02-27T00:20:13.094Z,-0.72
2023-02-27T00:23:02.615Z,-0.70
2023-02-27T00:25:52.879Z,-0.65
2023-02-27T00:28:44.210Z,-0.66
2023-02-27T00:31:36.022Z,-0.67
2023-02-27T00:34:26.230Z,-0.59
2023-02-27T00:37:19.409Z,-0.67
2023-02-27T00:40:11.630Z,-0.69
2023-02-27T00:43:01.900Z,-0.70
2023-02-27T00:45:53.688Z,-0.68
2023-02-27T00:48:45.502Z,-0.65
2023-02-27T00:51:35.364Z,-0.69
2023-02-27T00:54:25.962Z,-0.71
2023-02-27T00:57:15.877Z,-0.76
2023-02-27T01:00:07.263Z,-0.70
2023-02-27T01:02:58.280Z,-0.70
2023-02-27T01:05:47.749Z,-0.81
2023-02-27T01:08:37.619Z,-0.79
2023-02-27T01:11:28.107Z,-0.73
2023-02-27T01:14:22.224Z,-0.76
2023-02-27T01:17:12.318Z,-0.74
2023-02-27T01:20:03.943Z,-0.76
2023-02-27T01:22:53.715Z,-0.72
2023-02-27T01:25:43.894Z,-0.75
2023-02-27T01:28:33.380Z,-0.78
2023-02-27T01:31:23.097Z,-0.73
2023-02-27T01:34:12.950Z,-0.71
2023-02-27T01:37:07.821Z,-0.72
2023-02-27T01:39:57.734Z,-0.68
2023-02-27T01:42:47.926Z,-0.75
2023-02-27T01:45:39.600Z,-0.70
2023-02-27T01:48:31.497Z,-0.69
2023-02-27T01:51:22.881Z,-0.61
2023-02-27T01:54:18.591Z,-0.59
2023-02-27T01:57:09.328Z,-0.55
2023-02-27T01:59:59.086Z,-0.56
2023-02-27T02:02:52.134Z,-0.57
2023-02-27T02:05:42.253Z,-0.58
2023-02-27T02:08:34.795Z,-0.56
2023-02-27T02:11:27.473Z,-0.72
2023-02-27T02:14:17.458Z,-0.67
2023-02-27T02:17:16.432Z,-0.63
2023-02-27T02:20:37.587Z,-0.66
2023-02-27T02:24:05.634Z,-0.63
2023-02-27T02:27:19.268Z,-0.59
2023-02-27T02:30:44.210Z,-0.66
2023-02-27T02:34:23.021Z,-0.58
2023-02-27T02:37:43.935Z,-0.67
2023-02-27T02:40:39.317Z,-0.75
2023-02-27T02:43:33.401Z,-0.74
2023-02-27T02:46:30.568Z,-0.69
2023-02-27T02:49:25.261Z,-0.69
2023-02-27T02:52:17.814Z,-0.74
2023-02-27T02:55:10.355Z,-0.77
2023-02-27T02:58:05.031Z,-0.68
2023-02-27T03:00:58.423Z,-0.68
2023-02-27T03:03:51.792Z,-0.73
2023-02-27T03:06:45.424Z,-0.69
2023-02-27T03:09:39.028Z,-0.71
2023-02-27T03:12:30.765Z,-0.66
2023-02-27T03:15:24.836Z,-0.62
2023-02-27T03:18:20.975Z,-0.63
2023-02-27T03:21:13.410Z,-0.68
2023-02-27T03:24:07.467Z,-0.73
2023-02-27T03:27:03.224Z,-0.74
2023-02-27T03:29:58.581Z,-0.74
2023-02-27T03:32:57.108Z,-0.71
2023-02-27T03:35:50.912Z,-0.67
2023-02-27T03:38:45.878Z,-0.62
2023-02-27T03:41:38.119Z,-0.68
2023-02-27T03:44:52.568Z,-0.69
2023-02-27T03:47:42.611Z,-0.70
2023-02-27T03:50:34.207Z,-0.62
2023-02-27T03:53:28.921Z,-0.61
2023-02-27T03:56:22.449Z,-0.64
2023-02-27T03:59:12.765Z,-0.75
2023-02-27T04:02:07.658Z,-0.72
2023-02-27T04:05:00.873Z,-0.72
2023-02-27T04:08:25.280Z,-0.70
2023-02-27T04:11:26.590Z,-0.72
2023-02-27T04:14:42.414Z,-0.68
2023-02-27T04:17:33.062Z,-0.63
2023-02-27T04:20:39.244Z,-0.68
2023-02-27T04:23:36.277Z,-0.62
2023-02-27T04:26:30.892Z,-0.69
2023-02-27T04:29:23.836Z,-0.70
2023-02-27T04:32:16.968Z,-0.69
2023-02-27T07:40:35.269Z,-0.57
2023-02-27T07:43:26.305Z,-0.58
2023-02-27T07:46:16.469Z,-0.54
2023-02-27T07:49:08.499Z,-0.54
2023-02-27T07:51:58.067Z,-0.60
2023-02-27T07:54:47.446Z,-0.56
2023-02-27T07:57:38.216Z,-0.52
2023-02-27T08:00:27.493Z,-0.49
2023-02-27T08:03:17.319Z,-0.41
2023-02-27T08:06:07.680Z,-0.41
2023-02-27T08:08:57.568Z,-0.38
2023-02-27T08:11:48.902Z,-0.43
2023-02-27T08:14:40.124Z,-0.42
2023-02-27T08:17:33.052Z,-0.44
2023-02-27T08:20:24.601Z,-0.46
2023-02-27T08:23:14.560Z,-0.31
2023-02-27T08:26:04.568Z,-0.29
2023-02-27T08:29:00.391Z,-0.21
2023-02-27T08:31:51.741Z,-0.18
2023-02-27T08:34:41.596Z,-0.08
2023-02-27T08:37:37.404Z,-0.16
2023-02-27T08:40:27.414Z,-0.07
2023-02-27T08:43:18.004Z,-0.03
2023-02-27T08:46:08.441Z,0.04
2023-02-27T08:48:59.812Z,0.02
2023-02-27T08:51:49.781Z,0.13
2023-02-27T08:54:39.992Z,0.20
2023-02-27T08:57:29.968Z,0.25
2023-02-27T09:00:21.296Z,0.27
2023-02-27T09:03:11.670Z,0.25
2023-02-27T09:06:03.416Z,0.29
2023-02-27T09:08:53.086Z,0.42
2023-02-27T09:11:42.772Z,0.35
2023-02-27T09:14:32.450Z,0.34
2023-02-27T09:17:22.648Z,0.29
2023-02-27T09:20:13.886Z,0.39
2023-02-27T09:23:05.601Z,0.43
2023-02-27T09:25:55.385Z,0.50
2023-02-27T09:28:45.458Z,0.51
2023-02-27T09:31:35.654Z,0.53
2023-02-27T09:34:26.253Z,0.57
2023-02-27T09:37:16.651Z,0.54
2023-02-27T09:40:09.326Z,0.55
2023-02-27T09:43:01.540Z,0.56
2023-02-27T09:45:54.749Z,0.56
2023-02-27T09:48:47.452Z,0.58
2023-02-27T09:51:37.131Z,0.59
2023-02-27T09:54:33.251Z,0.64
2023-02-27T09:57:33.191Z,0.61
2023-02-27T10:00:37.913Z,0.68
2023-02-27T10:03:40.337Z,0.69
2023-02-27T10:06:33.638Z,0.61
2023-02-27T10:09:31.212Z,0.57
2023-02-27T10:12:50.074Z,0.69
2023-02-27T10:15:41.094Z,0.73
2023-02-27T10:18:32.630Z,0.66
2023-02-27T10:21:24.582Z,0.65
2023-02-27T10:24:22.648Z,0.68
2023-02-27T10:27:17.986Z,0.72
2023-02-27T10:30:29.282Z,0.68
2023-02-27T10:33:28.057Z,0.76
2023-02-27T10:36:32.435Z,0.72
2023-02-27T10:39:24.784Z,0.57
2023-02-27T10:42:15.070Z,0.64
2023-02-27T10:45:15.068Z,0.64
2023-02-27T10:48:06.918Z,0.69
2023-02-27T10:51:24.764Z,0.70
2023-02-27T10:54:32.259Z,0.62
2023-02-27T10:57:27.746Z,0.69
2023-02-27T11:00:28.470Z,0.75
2023-02-27T11:03:23.753Z,0.82
2023-02-27T11:06:15.862Z,0.79
2023-02-27T11:09:22.452Z,0.78
2023-02-27T11:12:14.673Z,0.83
2023-02-27T11:15:23.501Z,0.87
2023-02-27T11:18:27.482Z,0.86
2023-02-27T11:21:23.219Z,0.96
2023-02-27T11:24:21.008Z,1.03
2023-02-27T11:27:22.467Z,1.10
2023-02-27T11:30:25.143Z,1.09
2023-02-27T11:33:21.634Z,1.23
2023-02-27T11:36:13.027Z,1.39
2023-02-27T11:39:05.855Z,1.38
2023-02-27T11:41:57.284Z,1.53
2023-02-27T11:44:53.376Z,1.43
2023-02-27T11:47:44.388Z,1.42
2023-02-27T11:50:43.669Z,1.47
2023-02-27T11:54:04.620Z,1.40
2023-02-27T11:56:56.241Z,1.52
2023-02-27T11:59:50.136Z,1.41
2023-02-27T12:02:47.339Z,1.36
2023-02-27T12:05:41.704Z,1.46
2023-02-27T12:08:35.865Z,1.55
2023-02-27T12:11:30.037Z,1.67
2023-02-27T12:14:24.879Z,1.58
2023-02-27T12:17:22.157Z,1.49
2023-02-27T12:20:27.555Z,1.47
2023-02-27T12:23:21.174Z,1.40
2023-02-27T12:26:15.510Z,1.46
2023-02-27T12:29:13.199Z,1.55
2023-02-27T12:32:05.384Z,1.44
2023-02-27T12:34:56.367Z,1.52
2023-02-27T12:37:49.287Z,1.44
2023-02-27T12:40:48.586Z,1.37
2023-02-27T12:43:43.694Z,1.44
2023-02-27T12:46:43.411Z,1.42
2023-02-27T12:49:40.588Z,1.43
2023-02-27T12:52:37.425Z,1.46
2023-02-27T12:55:28.498Z,1.44
2023-02-27T12:58:30.600Z,1.40
2023-02-27T13:01:32.631Z,1.53
2023-02-27T13:04:27.319Z,1.57
2023-02-27T13:07:24.612Z,1.67
2023-02-27T13:10:19.306Z,1.76
2023-02-27T13:13:16.980Z,1.73
2023-02-27T13:16:09.038Z,1.72
2023-02-27T13:19:02.489Z,1.78
2023-02-27T13:21:57.267Z,1.73
2023-02-27T13:24:49.519Z,1.67
2023-02-27T13:27:40.642Z,1.68
2023-02-27T13:30:34.607Z,1.81
2023-02-27T13:33:51.782Z,1.79
2023-02-27T13:36:43.895Z,1.77
2023-02-27T13:39:56.395Z,1.58
2023-02-27T13:42:55.277Z,1.65
2023-02-27T13:45:57.076Z,1.63
2023-02-27T13:48:52.424Z,1.57
2023-02-27T13:51:51.016Z,1.62
2023-02-27T13:54:59.914Z,1.62
2023-02-27T13:57:53.861Z,1.71
2023-02-27T14:00:42.949Z,1.65
2023-02-27T14:03:32.607Z,1.66
2023-02-27T14:06:22.492Z,1.67
2023-02-27T14:09:15.328Z,1.71
2023-02-27T14:12:09.423Z,1.72
2023-02-27T14:14:59.012Z,1.81
2023-02-27T14:17:52.373Z,1.80
2023-02-27T14:20:52.064Z,1.79
2023-02-27T14:23:41.236Z,1.87
2023-02-27T14:26:30.613Z,1.87
2023-02-27T14:29:24.800Z,1.79
2023-02-27T14:32:20.990Z,1.81
2023-02-27T14:35:13.949Z,1.84
2023-02-27T14:38:09.851Z,1.79
2023-02-27T14:41:19.729Z,1.83
2023-02-27T14:44:20.459Z,1.79
2023-02-27T14:47:16.412Z,1.87
2023-02-27T14:50:07.600Z,1.72
2023-02-27T14:52:57.322Z,1.79
2023-02-27T14:55:55.304Z,1.74
2023-02-27T14:59:03.457Z,1.68
2023-02-27T15:01:54.484Z,1.94
2023-02-27T15:04:46.283Z,1.97
2023-02-27T15:07:36.372Z,2.07
2023-02-27T15:10:30.877Z,1.98
2023-02-27T15:13:26.926Z,2.12
2023-02-27T15:16:37.625Z,2.07
2023-02-27T15:19:28.864Z,2.20
2023-02-27T15:22:37.946Z,2.10
2023-02-27T15:25:30.319Z,2.16
2023-02-27T15:28:23.801Z,1.86
2023-02-27T15:31:19.315Z,1.96
2023-02-27T15:34:13.103Z,2.03
2023-02-27T15:37:02.967Z,1.86
2023-02-27T15:39:54.406Z,1.84
2023-02-27T15:42:44.895Z,1.88
2023-02-27T15:45:35.617Z,1.85
2023-02-27T15:48:25.027Z,1.67
2023-02-27T15:51:14.755Z,1.52
2023-02-27T15:54:06.890Z,1.63
2023-02-27T15:56:57.671Z,1.66
2023-02-27T15:59:47.194Z,1.62
2023-02-27T16:02:41.741Z,1.58
2023-02-27T16:05:36.565Z,1.43
2023-02-27T16:08:26.618Z,1.34
2023-02-27T16:11:20.323Z,1.34
2023-02-27T16:14:42.152Z,1.42
2023-02-27T16:17:33.431Z,1.38
2023-02-27T16:20:55.017Z,1.22
2023-02-27T16:23:44.784Z,1.10
2023-02-27T16:26:37.036Z,1.03
2023-02-27T16:29:33.677Z,0.99
2023-02-27T16:32:27.258Z,1.00
2023-02-27T16:35:19.023Z,1.02
2023-02-27T16:38:08.433Z,1.07
2023-02-27T16:40:57.954Z,1.05
2023-02-27T16:43:48.491Z,0.99
2023-02-27T16:46:39.319Z,0.93
2023-02-27T16:49:33.589Z,0.80
2023-02-27T16:52:23.681Z,0.95
2023-02-27T16:55:14.511Z,0.85
2023-02-27T16:58:07.445Z,0.75
2023-02-27T17:01:01.777Z,0.72
2023-02-27T17:03:51.425Z,0.79
2023-02-27T17:06:43.152Z,0.70
2023-02-27T17:09:32.668Z,0.68
2023-02-27T17:12:25.908Z,0.65
2023-02-27T17:15:16.391Z,0.72
2023-02-27T17:18:20.931Z,0.65
2023-02-27T17:21:50.502Z,0.46
2023-02-27T17:25:05.798Z,0.39
2023-02-27T17:28:05.916Z,0.43
2023-02-27T17:30:55.929Z,0.47
2023-02-27T17:33:46.336Z,0.47
2023-02-27T17:36:36.319Z,0.51
2023-02-27T17:39:25.870Z,0.58
2023-02-27T17:42:31.836Z,0.56
2023-02-27T17:45:21.733Z,0.53
2023-02-27T17:48:17.142Z,0.54
2023-02-27T17:51:07.024Z,0.43
2023-02-27T17:54:11.023Z,0.44
2023-02-27T17:57:20.603Z,0.29
2023-02-27T18:00:16.624Z,0.26
2023-02-27T18:03:07.108Z,0.42
2023-02-27T18:05:56.657Z,0.34
2023-02-27T18:08:46.158Z,0.37
2023-02-27T18:11:37.680Z,0.34
2023-02-27T18:14:26.874Z,0.31
2023-02-27T18:17:17.638Z,0.32
2023-02-27T18:20:08.080Z,0.24
2023-02-27T18:22:57.710Z,0.16
2023-02-27T18:25:55.398Z,0.14
2023-02-27T18:28:45.053Z,0.00
2023-02-27T18:31:36.680Z,0.00
2023-02-27T18:34:31.005Z,0.07
2023-02-27T18:37:21.465Z,0.06
2023-02-27T18:40:15.343Z,-0.02
2023-02-27T18:43:05.253Z,0.06
2023-02-27T18:45:55.015Z,0.03
2023-02-27T18:48:46.021Z,0.09
2023-02-27T18:51:36.951Z,0.14
2023-02-27T18:54:29.815Z,0.16
2023-02-27T18:57:19.487Z,0.20
2023-02-27T19:00:10.462Z,0.15
2023-02-27T19:03:00.482Z,0.13
2023-02-27T19:05:52.154Z,0.14
2023-02-27T19:08:43.220Z,0.12
2023-02-27T19:11:35.903Z,0.06
2023-02-27T19:14:25.769Z,0.12
2023-02-27T19:17:15.648Z,0.06
2023-02-27T19:20:07.158Z,-0.05
2023-02-27T19:23:00.831Z,-0.01
2023-02-27T19:25:59.624Z,0.08
2023-02-27T19:28:52.144Z,0.13
2023-02-27T19:31:42.435Z,0.02
2023-02-27T19:34:32.142Z,0.03
2023-02-27T19:37:22.136Z,0.09
2023-02-27T19:40:12.910Z,0.10
2023-02-27T19:43:03.950Z,0.11
2023-02-27T19:45:53.318Z,0.10
2023-02-27T19:48:44.497Z,0.07
2023-02-27T19:51:34.606Z,0.12
2023-02-27T19:54:24.562Z,0.19
2023-02-27T19:57:15.122Z,0.27
2023-02-27T20:00:07.257Z,0.23
2023-02-27T20:03:02.042Z,0.27
2023-02-27T20:05:52.057Z,0.17
2023-02-27T20:08:42.124Z,0.19
2023-02-27T20:11:32.203Z,0.22
2023-02-27T20:14:21.733Z,0.25
2023-02-27T20:17:12.871Z,0.23
2023-02-27T20:20:02.953Z,0.19
2023-02-27T20:22:53.280Z,0.15
2023-02-27T20:25:49.293Z,0.08
2023-02-27T20:28:39.511Z,0.00
2023-02-27T20:31:32.103Z,0.02
2023-02-27T20:34:26.642Z,0.04
2023-02-27T20:37:16.829Z,0.09
2023-02-27T20:40:08.623Z,0.03
2023-02-27T20:43:01.621Z,0.03
2023-02-27T20:45:51.704Z,-0.05
2023-02-27T20:48:42.100Z,-0.08
2023-02-27T20:51:36.417Z,-0.14
2023-02-27T20:54:26.764Z,-0.02
2023-02-27T20:57:16.974Z,-0.09
2023-02-27T21:00:12.083Z,-0.10
2023-02-27T21:03:01.866Z,-0.18
2023-02-27T21:05:54.467Z,-0.25
2023-02-27T21:08:46.858Z,-0.30
2023-02-27T21:11:36.844Z,-0.23
2023-02-27T21:14:27.243Z,-0.15
2023-02-27T21:17:17.817Z,-0.04
2023-02-27T21:20:08.801Z,-0.01
2023-02-27T21:22:58.706Z,-0.13
2023-02-27T21:25:49.949Z,-0.16
2023-02-27T21:28:47.792Z,-0.18
2023-02-27T21:31:38.357Z,-0.17
2023-02-27T21:34:28.927Z,-0.11
2023-02-27T21:37:20.386Z,-0.12
2023-02-27T21:40:11.245Z,-0.07
2023-02-27T21:43:05.429Z,-0.17
2023-02-27T21:45:56.201Z,-0.18
2023-02-27T21:48:46.107Z,-0.15
2023-02-27T21:51:40.834Z,-0.21
2023-02-27T21:54:32.253Z,-0.21
2023-02-27T21:57:37.858Z,-0.17
2023-02-27T22:00:31.272Z,-0.18
2023-02-27T22:03:21.956Z,-0.23
2023-02-27T22:06:14.502Z,-0.28
2023-02-27T22:09:17.109Z,-0.19
2023-02-27T22:12:07.894Z,-0.31
2023-02-27T22:14:57.776Z,-0.44
2023-02-27T22:17:50.897Z,-0.37
2023-02-27T22:20:47.710Z,-0.30
2023-02-27T22:23:39.304Z,-0.37
2023-02-27T22:26:31.235Z,-0.39
2023-02-27T22:29:20.956Z,-0.35
2023-02-27T22:32:18.504Z,-0.45
2023-02-27T22:35:10.320Z,-0.46
2023-02-27T22:38:00.276Z,-0.60
2023-02-27T22:40:50.494Z,-0.62
2023-02-27T22:43:41.103Z,-0.59
2023-02-27T22:46:31.840Z,-0.70
2023-02-27T22:49:23.593Z,-0.70
2023-02-27T22:52:15.117Z,-0.77
2023-02-27T22:55:06.017Z,-0.80
2023-02-27T22:57:57.044Z,-0.83
2023-02-27T23:00:47.355Z,-0.84
2023-02-27T23:03:37.372Z,-0.85
2023-02-27T23:06:29.177Z,-0.92
2023-02-27T23:09:22.619Z,-0.85
2023-02-27T23:12:12.289Z,-0.94
2023-02-27T23:15:04.843Z,-0.94
2023-02-27T23:17:58.698Z,-0.97
2023-02-27T23:20:49.529Z,-0.88
2023-02-27T23:23:39.335Z,-0.96
2023-02-27T23:26:30.309Z,-0.97
2023-02-27T23:29:19.915Z,-1.01
2023-02-27T23:32:09.697Z,-1.00
2023-02-27T23:34:59.587Z,-0.95
2023-02-27T23:37:50.802Z,-1.02
2023-02-27T23:40:40.496Z,-1.04
2023-02-27T23:43:52.468Z,-1.07
2023-02-27T23:46:42.565Z,-1.04
2023-02-27T23:49:35.668Z,-1.04
2023-02-27T23:52:25.512Z,-1.13
2023-02-27T23:55:15.071Z,-1.08
2023-02-27T23:58:06.911Z,-1.13
